Airfield :
LOGIN :

Register | Disclaimer

   EN    FR    IT 

 










Legend :    VFR   Marginal VFR   IFR   Intensive IFR   Very Intensive IFR
Visi :
Ceiling :
>= 8 km
>= 3000ft
5 to 8 km
1000 to 3000 ft
1500m to 5 km
500 to 1000 ft
800 to 1500m
200 to 500 ft
< 800m
< 200 ft
Symbols :   Thunderstorms  Fog  Heavy snow  Heavy precipitations  Wind > 20 kt
SIGMETs :     Misc.  Thunderstorms  Icing  Turbulence  Mountain Waves  Volcanic Ashes






- Airport Elevation : 364 ft


LFAQ - Albert Bray

CURRENT METAR :
  • 281830Z AUTO 01020KT CAVOK 08/04 Q1024 TEMPO 03020G30KT

EXPIRED METARs :
  • 281800Z AUTO 01024KT CAVOK 08/04 Q1023 TEMPO 03020G30KT
  • 281730Z AUTO 02022KT CAVOK 09/04 Q1023 TEMPO 03020G30KT
  • 281700Z AUTO 01023KT CAVOK 10/04 Q1022 TEMPO 03020G30KT
  • 281630Z AUTO 02024KT CAVOK 12/05 Q1022 TEMPO 03020G30KT
  • 281600Z AUTO 02023KT CAVOK 13/05 Q1021 TEMPO 03020G30KT

TAF TAF LFAQ
Valid from the 28 at 15:00 until the 29 at 00:00 UTC


281400Z 2815/2824 03015G25KT CAVOK
TEMPO 2815/2824 03020G30KT



MET'MAP, your aeronautical weather chart ! - Copyright ORBIFLY December 2007 - Disclaimer

ORBIFLY MET'MAP TEAM :

Programming & Development : Alexandra Zaïnal
Concept & original design : Baudouin d'Aumeries
Assistance for programming : Marc-Olivier Méhu
Technical & hardware support : Manuel Goepfert

Contact : metmap@orbifly.com




SOURCES & CREDITS :

   NOAA